Lancaster, NH

11:05 AM EDT on August 27, 2016 (GMT -0400)
Village Rt 102S | | Change Station

Elev 866 ft 44.57 °N, 71.57 °W | Updated 25 seconds ago

Clear
Clear
76.9 °F
Feels Like 79 °F
N
2.5
Wind Variable Wind from SSW
Gusts 2.9 mph

Today
High -- | Low -- °F
--% Chance of Precip.
Yesterday
High -- | Low -- °F
Precip. -- in
Pressure 30.24 in
Visibility 10.0 miles
Clouds Clear
Heat Index 79 °F
Dew Point 62 °F
Humidity 61%
Rainfall 0.00 in
Snow Depth Not available.
6:03 AM 7:30 PM
Waning Crescent, 24% visible
METAR KHIE 271452Z AUTO 00000KT 10SM CLR 23/14 A3024 RMK AO2 SLP239 T02330144 51007
Pressure 30.24 in
Visibility 10.0 miles
Clouds Clear
Heat Index 79 °F
Dew Point 62 °F
Humidity 61%
Rainfall 0.00 in
Snow Depth Not available.
6:03 AM 7:30 PM
Waning Crescent, 24% visible
METAR KHIE 271452Z AUTO 00000KT 10SM CLR 23/14 A3024 RMK AO2 SLP239 T02330144 51007

10-Day Weather Forecast

Almanac

Astronomy

Aug. 27, 2016 Rise Set
Actual Time
Civil Twilight
Nautical Twilight
Astronomical Twilight
Moon
Length of Visible Light
Length of Day
Tomorrow will be .
, % of the Moon is Illuminated

Today's Extremes

State Highs State Lows

Community

WunderPhotos

Upload Photos

1,935,354 photos uploaded!

WunderBlog® & News

Nearby

Air Quality

  Air Quality AQ Index Pollutant
Not available.

Snow Depth

Station Depth Elevation

Earthquake Activity

City Distance Mag. Time & Date
Minimum magnitude displayed is 2.5.

Coastal Water Temperatures

Place Temperature

Stations

Nearby Weather Stations

Station Location Temp. Windchill Dew Point Humidity Wind Precip. Elev Updated Type
                   

Watches & Warnings

There are currently no watches in effect.